createdAt,value
2018-03-29T00:00:03.526Z,1001.91
2018-03-29T00:05:03.119Z,1001.91
2018-03-29T00:10:02.786Z,1001.98
2018-03-29T00:15:03.389Z,1002.11
2018-03-29T00:20:03.033Z,1002.04
2018-03-29T00:25:03.590Z,1001.98
2018-03-29T00:30:03.103Z,1002.12
2018-03-29T00:35:02.729Z,1002.11
2018-03-29T00:40:03.357Z,1002.14
2018-03-29T00:45:02.928Z,1002.18
2018-03-29T00:50:03.498Z,1002.29
2018-03-29T00:55:03.045Z,1002.31
2018-03-29T01:00:03.614Z,1002.4
2018-03-29T01:05:03.186Z,1002.47
2018-03-29T01:10:02.860Z,1002.46
2018-03-29T01:15:03.365Z,1002.45
2018-03-29T01:20:02.945Z,1002.53
2018-03-29T01:25:03.449Z,1002.57
2018-03-29T01:30:02.981Z,1002.62
2018-03-29T01:35:03.654Z,1002.61
2018-03-29T01:40:03.263Z,1002.72
2018-03-29T01:45:02.831Z,1002.68
2018-03-29T01:50:03.386Z,1002.63
2018-03-29T01:55:02.928Z,1002.73
2018-03-29T02:00:03.545Z,1002.81
2018-03-29T02:05:03.032Z,1002.78
2018-03-29T02:10:03.677Z,1002.82
2018-03-29T02:15:03.289Z,1002.82
2018-03-29T02:20:02.886Z,1002.82
2018-03-29T02:25:03.420Z,1002.88
2018-03-29T02:30:02.999Z,1002.86
2018-03-29T02:35:03.647Z,1002.84
2018-03-29T02:40:03.247Z,1002.84
2018-03-29T02:45:02.776Z,1002.82
2018-03-29T02:50:03.358Z,1002.86
2018-03-29T02:55:02.963Z,1002.85
2018-03-29T03:00:03.873Z,1002.94
2018-03-29T03:05:03.437Z,1002.93
2018-03-29T03:10:03.091Z,1002.96
2018-03-29T03:15:03.732Z,1002.94
2018-03-29T03:20:03.321Z,1002.86
2018-03-29T03:25:02.824Z,1003.02
2018-03-29T03:30:03.371Z,1003.05
2018-03-29T03:35:02.942Z,1003.01
2018-03-29T03:40:03.584Z,1003.03
2018-03-29T03:45:03.177Z,1003.11
2018-03-29T03:50:02.766Z,1003.11
2018-03-29T03:55:03.292Z,1003.25
2018-03-29T04:00:02.892Z,1003.23
2018-03-29T04:05:03.647Z,1003.27
2018-03-29T04:10:03.322Z,1003.34
2018-03-29T04:15:02.964Z,1003.31
2018-03-29T04:20:03.612Z,1003.28
2018-03-29T04:25:03.272Z,1003.39
2018-03-29T04:30:03.016Z,1003.3
2018-03-29T04:35:03.597Z,1003.34
2018-03-29T04:40:03.201Z,1003.41
2018-03-29T04:45:02.814Z,1003.37
2018-03-29T04:50:03.393Z,1003.34
2018-03-29T04:55:03.093Z,1003.39
2018-03-29T05:00:03.631Z,1003.44
2018-03-29T05:05:03.198Z,1003.43
2018-03-29T05:10:02.878Z,1003.43
2018-03-29T05:15:03.504Z,1003.46
2018-03-29T05:20:03.052Z,1003.52
2018-03-29T05:25:03.600Z,1003.5
2018-03-29T05:30:03.232Z,1003.6
2018-03-29T05:35:02.824Z,1003.6
2018-03-29T05:40:04.228Z,1003.58
2018-03-29T05:45:02.764Z,1003.64
2018-03-29T05:50:03.376Z,1003.7
2018-03-29T05:55:02.890Z,1003.71
2018-03-29T06:00:03.346Z,1003.76
2018-03-29T06:05:03.013Z,1003.79
2018-03-29T06:10:03.667Z,1003.75
2018-03-29T06:15:03.232Z,1003.79
2018-03-29T06:20:02.903Z,1003.82
2018-03-29T06:25:03.776Z,1003.78
2018-03-29T06:30:03.362Z,1003.78
2018-03-29T06:35:03.000Z,1003.87
2018-03-29T06:40:03.616Z,1003.92
2018-03-29T06:45:03.518Z,1003.88
2018-03-29T06:50:03.168Z,1003.91
2018-03-29T06:55:02.811Z,1003.99
2018-03-29T07:00:03.432Z,1004.04
2018-03-29T07:05:03.058Z,1004.06
2018-03-29T07:10:03.071Z,1004.1
2018-03-29T07:15:03.859Z,1004.14
2018-03-29T07:20:03.527Z,1004.17
2018-03-29T07:25:03.054Z,1004.17
2018-03-29T07:30:04.373Z,1004.11
2018-03-29T07:35:02.912Z,1004.19
2018-03-29T07:40:03.568Z,1004.26
2018-03-29T07:45:03.207Z,1004.26
2018-03-29T07:50:03.044Z,1004.3
2018-03-29T07:55:03.601Z,1004.33
2018-03-29T08:00:03.175Z,1004.4
2018-03-29T08:05:02.736Z,1004.42
2018-03-29T08:10:03.374Z,1004.39
2018-03-29T08:15:02.989Z,1004.44
2018-03-29T08:20:03.601Z,1004.43
2018-03-29T08:25:03.147Z,1004.56
2018-03-29T08:30:02.785Z,1004.6
2018-03-29T08:35:03.421Z,1004.66
2018-03-29T08:40:03.030Z,1004.7
2018-03-29T08:45:03.628Z,1004.76
2018-03-29T08:50:03.224Z,1004.89
2018-03-29T08:55:02.744Z,1004.81
2018-03-29T09:00:03.305Z,1004.9
2018-03-29T09:05:02.972Z,1004.76
2018-03-29T09:10:03.045Z,1004.88
2018-03-29T09:15:02.705Z,1004.87
2018-03-29T09:20:03.371Z,1004.83
2018-03-29T09:25:03.013Z,1004.86
2018-03-29T09:30:03.714Z,1004.8
2018-03-29T09:35:03.432Z,1004.89
2018-03-29T09:40:03.115Z,1004.9
2018-03-29T09:45:03.674Z,1004.93
2018-03-29T09:50:03.637Z,1004.95
2018-03-29T09:55:03.143Z,1004.96
2018-03-29T10:00:03.693Z,1004.9
2018-03-29T10:05:03.402Z,1004.91
2018-03-29T10:10:03.442Z,1004.93
2018-03-29T10:15:03.001Z,1004.97
2018-03-29T10:20:03.944Z,1004.9
2018-03-29T10:25:03.552Z,1004.89
2018-03-29T10:30:03.055Z,1004.98
2018-03-29T10:35:02.981Z,1004.89
2018-03-29T10:40:03.604Z,1004.93
2018-03-29T10:45:03.160Z,1004.89
2018-03-29T10:50:02.775Z,1004.88
2018-03-29T10:55:03.374Z,1004.91
2018-03-29T11:00:02.944Z,1004.97
2018-03-29T11:05:03.612Z,1004.9
2018-03-29T11:10:03.323Z,1004.89
2018-03-29T11:15:02.954Z,1004.91
2018-03-29T11:20:03.632Z,1004.81
2018-03-29T11:25:03.530Z,1005.06
2018-03-29T11:30:03.531Z,1004.91
2018-03-29T11:35:03.144Z,1004.97
2018-03-29T11:40:02.729Z,1004.95
2018-03-29T11:45:03.253Z,1005.01
2018-03-29T11:50:02.895Z,1004.94
2018-03-29T11:55:03.494Z,1004.88
2018-03-29T12:00:03.023Z,1004.82
2018-03-29T12:05:03.800Z,1004.73
2018-03-29T12:10:03.431Z,1004.64
2018-03-29T12:15:03.048Z,1004.63
2018-03-29T12:20:03.698Z,1004.59
2018-03-29T12:25:03.412Z,1004.6
2018-03-29T12:30:03.031Z,1004.63
2018-03-29T12:35:03.713Z,1004.55
2018-03-29T12:40:03.637Z,1004.59
2018-03-29T12:45:03.324Z,1004.9
2018-03-29T12:50:02.933Z,1005.2
2018-03-29T12:55:03.464Z,1005.38
2018-03-29T13:00:03.040Z,1005.46
2018-03-29T13:05:03.547Z,1005.35
2018-03-29T13:10:03.157Z,1005.22
2018-03-29T13:15:02.784Z,1005.23
2018-03-29T13:20:03.462Z,1005.03
2018-03-29T13:25:03.382Z,1005.04
2018-03-29T13:30:02.954Z,1005.03
2018-03-29T13:35:03.655Z,1004.99
2018-03-29T13:40:03.281Z,1004.98
2018-03-29T13:45:02.861Z,1005
2018-03-29T13:50:03.452Z,1005.14
2018-03-29T13:55:02.956Z,1005.12
2018-03-29T14:00:03.500Z,1005.16
2018-03-29T14:05:03.009Z,1005.02
2018-03-29T14:10:03.597Z,1004.93
2018-03-29T14:15:03.162Z,1004.87
2018-03-29T14:20:02.690Z,1004.8
2018-03-29T14:25:03.364Z,1004.68
2018-03-29T14:30:03.633Z,1004.62
2018-03-29T14:35:03.425Z,1004.61
2018-03-29T14:40:03.110Z,1004.61
2018-03-29T14:45:03.619Z,1004.59
2018-03-29T14:50:03.192Z,1004.54
2018-03-29T14:55:02.885Z,1004.58
2018-03-29T15:00:03.586Z,1004.55
2018-03-29T15:05:03.164Z,1004.55
2018-03-29T15:10:02.843Z,1004.53
2018-03-29T15:15:03.406Z,1004.62
2018-03-29T15:20:02.970Z,1004.48
2018-03-29T15:25:03.484Z,1004.45
2018-03-29T15:30:03.115Z,1004.39
2018-03-29T15:35:02.760Z,1004.4
2018-03-29T15:40:03.326Z,1004.36
2018-03-29T15:45:02.983Z,1004.3
2018-03-29T15:50:03.568Z,1004.19
2018-03-29T15:55:03.435Z,1004.18
2018-03-29T16:00:03.046Z,1004.17
2018-03-29T16:05:03.623Z,1004.17
2018-03-29T16:10:03.216Z,1004.12
2018-03-29T16:15:02.768Z,1004.09
2018-03-29T16:20:03.387Z,1004.05
2018-03-29T16:25:03.102Z,1004.09
2018-03-29T16:30:02.809Z,1004.09
2018-03-29T16:35:03.716Z,1004.2
2018-03-29T16:40:03.636Z,1004.16
2018-03-29T16:45:03.458Z,1004.21
2018-03-29T16:50:03.017Z,1004.22
2018-03-29T16:55:03.561Z,1004.26
2018-03-29T17:00:03.490Z,1004.29
2018-03-29T17:05:02.992Z,1004.31
2018-03-29T17:10:02.725Z,1004.36
2018-03-29T17:15:03.218Z,1004.32
2018-03-29T17:20:02.815Z,1004.38
2018-03-29T17:25:03.441Z,1004.44
2018-03-29T17:30:03.047Z,1004.6
2018-03-29T17:35:02.700Z,1004.72
2018-03-29T17:40:03.697Z,1004.75
2018-03-29T17:45:03.486Z,1004.88
2018-03-29T17:50:03.031Z,1004.86
2018-03-29T17:55:02.921Z,1004.81
2018-03-29T18:00:03.518Z,1004.92
2018-03-29T18:05:03.128Z,1004.93
2018-03-29T18:10:02.790Z,1004.94
2018-03-29T18:15:03.345Z,1005.02
2018-03-29T18:20:02.942Z,1005.06
2018-03-29T18:25:03.653Z,1005.14
2018-03-29T18:30:03.263Z,1005.07
2018-03-29T18:35:02.791Z,1005.12
2018-03-29T18:40:03.377Z,1005.12
2018-03-29T18:45:02.906Z,1005.13
2018-03-29T18:50:03.555Z,1005.23
2018-03-29T18:55:03.446Z,1005.23
2018-03-29T19:00:03.008Z,1005.22
2018-03-29T19:05:03.662Z,1005.17
2018-03-29T19:10:03.239Z,1005.33
2018-03-29T19:15:02.724Z,1005.27
2018-03-29T19:20:03.301Z,1005.27
2018-03-29T19:25:02.877Z,1005.29
2018-03-29T19:30:03.404Z,1005.35
2018-03-29T19:35:03.246Z,1005.33
2018-03-29T19:40:02.943Z,1005.26
2018-03-29T19:45:03.733Z,1005.2
2018-03-29T19:50:03.312Z,1005.23
2018-03-29T19:55:02.938Z,1005.3
2018-03-29T20:00:03.729Z,1005.26
2018-03-29T20:05:03.300Z,1005.3
2018-03-29T20:10:02.866Z,1005.28
2018-03-29T20:15:03.417Z,1005.17
2018-03-29T20:20:02.986Z,1005.11
2018-03-29T20:25:03.686Z,1005.08
2018-03-29T20:30:03.174Z,1005.09
2018-03-29T20:35:02.786Z,1004.98
2018-03-29T20:40:03.759Z,1004.96
2018-03-29T20:45:03.585Z,1005.14
2018-03-29T20:50:03.212Z,1005.08
2018-03-29T20:55:02.786Z,1005
2018-03-29T21:00:03.364Z,1005.03
2018-03-29T21:05:03.015Z,1005.01
2018-03-29T21:10:03.605Z,1005.02
2018-03-29T21:15:03.251Z,1004.99
2018-03-29T21:20:02.894Z,1004.99
2018-03-29T21:25:03.461Z,1005.14
2018-03-29T21:30:03.342Z,1005.2
2018-03-29T21:35:03.063Z,1005.21
2018-03-29T21:40:02.670Z,1005.24
2018-03-29T21:45:03.163Z,1005.2
2018-03-29T21:50:03.704Z,1005.23
2018-03-29T21:55:03.321Z,1005.15
2018-03-29T22:00:02.916Z,1005.22
2018-03-29T22:05:03.556Z,1005.17
2018-03-29T22:10:03.201Z,1005.13
2018-03-29T22:15:02.743Z,1005.1
2018-03-29T22:20:03.402Z,1005.09
2018-03-29T22:25:02.956Z,1005.08
2018-03-29T22:30:03.570Z,1005
2018-03-29T22:35:03.385Z,1004.92
2018-03-29T22:40:03.174Z,1004.91
2018-03-29T22:45:02.756Z,1004.86
2018-03-29T22:50:03.355Z,1004.88
2018-03-29T22:55:02.885Z,1004.73
2018-03-29T23:00:05.563Z,1004.8
2018-03-29T23:05:03.293Z,1004.78
2018-03-29T23:10:02.973Z,1004.76
2018-03-29T23:15:03.511Z,1004.67
2018-03-29T23:20:03.150Z,1004.7
2018-03-29T23:25:03.668Z,1004.73
2018-03-29T23:30:03.263Z,1004.66
2018-03-29T23:35:02.837Z,1004.64
2018-03-29T23:40:03.439Z,1004.65
2018-03-29T23:45:03.041Z,1004.6
2018-03-29T23:50:03.646Z,1004.58
2018-03-29T23:55:03.191Z,1004.53
